Time;durP1;ratioP1;P1;durP2;ratioP2;P2;SDS_P1;SDS_P2;PMS_P1;PMS_P2;Temp;Humidity;BMP_temperature;BMP_pressure;BME280_temperature;BME280_humidity;BME280_pressure;Samples;Min_cycle;Max_cycle;Signal;HPM_P1;HPM_P2
2022/03/21 00:00:59;;;;;;;58.97;42.30;;;;;;;;;;5017657;28;92057;-71
2022/03/21 00:03:30;;;;;;;56.20;41.08;;;;;;;;;;5013470;28;94838;-71
2022/03/21 00:05:57;;;;;;;56.65;43.60;;;;;;;;;;5013467;28;94809;-71
2022/03/21 00:08:24;;;;;;;67.20;44.60;;;;;;;;;;5012201;28;96466;-71
2022/03/21 00:10:52;;;;;;;60.80;42.45;;;;;;;;;;5013801;28;93778;-71
2022/03/21 00:13:19;;;;;;;68.63;45.38;;;;;;;;;;5014635;28;92449;-72
2022/03/21 00:15:46;;;;;;;62.67;43.00;;;;;;;;;;5013228;28;92494;-72
2022/03/21 00:18:16;;;;;;;61.65;43.08;;;;;;;;;;5014189;28;93078;-71
2022/03/21 00:20:43;;;;;;;54.08;41.05;;;;;;;;;;5013683;28;92438;-72
2022/03/21 00:23:10;;;;;;;56.58;43.08;;;;;;;;;;5016233;28;93345;-72
2022/03/21 00:25:36;;;;;;;60.17;43.20;;;;;;;;;;5014372;28;91750;-72
2022/03/21 00:28:03;;;;;;;57.40;41.53;;;;;;;;;;5014526;28;92433;-72
2022/03/21 00:30:30;;;;;;;64.75;43.50;;;;;;;;;;5011572;28;95602;-72
2022/03/21 00:32:57;;;;;;;60.78;44.35;;;;;;;;;;5011704;28;94972;-72
2022/03/21 00:35:24;;;;;;;61.72;43.83;;;;;;;;;;5012199;27;95534;-72
2022/03/21 00:37:50;;;;;;;58.35;42.90;;;;;;;;;;5013802;28;95514;-72
2022/03/21 00:40:17;;;;;;;56.33;43.33;;;;;;;;;;5013277;28;92416;-71
2022/03/21 00:42:44;;;;;;;62.10;42.45;;;;;;;;;;5013315;28;94359;-71
2022/03/21 00:45:15;;;;;;;58.47;42.13;;;;;;;;;;5015698;28;94905;-71
2022/03/21 00:47:42;;;;;;;63.65;46.17;;;;;;;;;;5014105;28;93773;-72
2022/03/21 00:50:09;;;;;;;68.53;45.65;;;;;;;;;;5014252;28;92699;-72
2022/03/21 00:52:40;;;;;;;55.75;42.50;;;;;;;;;;5013969;28;92441;-72
2022/03/21 00:55:07;;;;;;;55.65;42.70;;;;;;;;;;5013588;28;93392;-72
2022/03/21 00:57:34;;;;;;;56.40;42.70;;;;;;;;;;5011665;28;96551;-72
2022/03/21 01:00:02;;;;;;;59.35;43.60;;;;;;;;;;5013132;28;93822;-72
2022/03/21 01:02:28;;;;;;;62.42;44.85;;;;;;;;;;5013729;28;94126;-72
2022/03/21 01:04:55;;;;;;;60.35;43.47;;;;;;;;;;5012148;28;94781;-72
2022/03/21 01:07:21;;;;;;;59.42;43.97;;;;;;;;;;5016602;28;92500;-72
2022/03/21 01:09:48;;;;;;;60.67;44.20;;;;;;;;;;5012255;28;96083;-72
2022/03/21 01:12:14;;;;;;;61.67;44.08;;;;;;;;;;5012222;28;93093;-72
2022/03/21 01:14:41;;;;;;;62.80;45.45;;;;;;;;;;5013398;28;94270;-72
2022/03/21 01:17:07;;;;;;;68.93;44.53;;;;;;;;;;5014032;28;93973;-72
2022/03/21 01:19:34;;;;;;;66.00;46.70;;;;;;;;;;5012210;28;92673;-72
2022/03/21 01:22:00;;;;;;;63.55;47.50;;;;;;;;;;5012353;28;94855;-72
2022/03/21 01:24:26;;;;;;;72.78;45.60;;;;;;;;;;5012592;28;94192;-72
2022/03/21 01:26:53;;;;;;;64.90;48.35;;;;;;;;;;5012930;28;92775;-72
2022/03/21 01:29:19;;;;;;;67.60;47.35;;;;;;;;;;5015203;28;94016;-72
2022/03/21 01:31:46;;;;;;;63.90;45.50;;;;;;;;;;5013535;28;92601;-72
2022/03/21 01:34:12;;;;;;;62.60;46.95;;;;;;;;;;5010784;28;94174;-72
2022/03/21 01:36:38;;;;;;;70.55;47.70;;;;;;;;;;5013194;28;94066;-72
2022/03/21 01:39:05;;;;;;;66.05;46.75;;;;;;;;;;5013229;28;91812;-72
2022/03/21 01:41:31;;;;;;;67.35;48.50;;;;;;;;;;5011979;27;93444;-72
2022/03/21 01:43:59;;;;;;;70.55;46.88;;;;;;;;;;5012256;28;94185;-72
2022/03/21 01:46:27;;;;;;;63.15;45.30;;;;;;;;;;5011536;28;94918;-72
2022/03/21 01:48:54;;;;;;;57.30;45.75;;;;;;;;;;5015140;28;97415;-72
2022/03/21 01:51:20;;;;;;;68.03;45.35;;;;;;;;;;5012273;28;93269;-72
2022/03/21 01:56:32;;;;;;;58.83;43.70;;;;;;;;;;5011450;28;94854;-72
2022/03/21 01:58:58;;;;;;;61.15;44.95;;;;;;;;;;5012242;28;92532;-72
2022/03/21 02:01:25;;;;;;;65.80;45.20;;;;;;;;;;5011294;28;93177;-72
2022/03/21 02:03:51;;;;;;;65.10;47.88;;;;;;;;;;5011591;28;92630;-72
2022/03/21 02:06:18;;;;;;;61.42;46.92;;;;;;;;;;5012361;28;92558;-72
2022/03/21 02:08:44;;;;;;;68.97;47.83;;;;;;;;;;5011603;28;93864;-72
2022/03/21 02:11:11;;;;;;;63.83;45.38;;;;;;;;;;5013299;28;95744;-72
2022/03/21 02:13:37;;;;;;;64.75;48.45;;;;;;;;;;5011865;28;97477;-72
2022/03/21 02:16:04;;;;;;;71.45;45.85;;;;;;;;;;5012284;28;94400;-72
2022/03/21 02:18:31;;;;;;;74.70;49.08;;;;;;;;;;5011777;28;92471;-72
2022/03/21 02:20:59;;;;;;;64.30;46.13;;;;;;;;;;5010394;28;93014;-72
2022/03/21 02:23:41;;;;;;;62.47;45.10;;;;;;;;;;5011265;28;94110;-72
2022/03/21 02:26:08;;;;;;;66.95;47.60;;;;;;;;;;4992915;28;92424;-72
2022/03/21 02:28:35;;;;;;;72.38;48.85;;;;;;;;;;4992896;28;94408;-72
2022/03/21 02:31:02;;;;;;;64.65;46.05;;;;;;;;;;5011934;28;94157;-72
2022/03/21 02:33:28;;;;;;;65.68;47.17;;;;;;;;;;5015384;28;92840;-72
2022/03/21 02:35:55;;;;;;;62.22;46.78;;;;;;;;;;5008988;28;96016;-72
2022/03/21 02:38:24;;;;;;;63.08;46.83;;;;;;;;;;5012306;28;92517;-72
2022/03/21 02:40:50;;;;;;;67.10;46.65;;;;;;;;;;5011737;28;94121;-72
2022/03/21 02:43:16;;;;;;;66.05;47.30;;;;;;;;;;5011489;28;94025;-72
2022/03/21 02:45:43;;;;;;;69.15;47.28;;;;;;;;;;5012077;28;92466;-72
2022/03/21 02:48:13;;;;;;;70.72;46.85;;;;;;;;;;5012010;28;93892;-72
2022/03/21 02:50:52;;;;;;;65.65;46.38;;;;;;;;;;5009092;28;94253;-72
2022/03/21 02:53:20;;;;;;;67.47;46.75;;;;;;;;;;5012178;28;93424;-72
2022/03/21 02:55:46;;;;;;;69.53;48.30;;;;;;;;;;5014449;28;94143;-72
2022/03/21 02:58:12;;;;;;;65.30;47.20;;;;;;;;;;5011426;28;92932;-72
2022/03/21 03:00:39;;;;;;;63.75;47.08;;;;;;;;;;5010423;28;96051;-72
2022/03/21 03:03:05;;;;;;;70.05;46.75;;;;;;;;;;5011193;28;94191;-72
2022/03/21 03:05:32;;;;;;;76.95;49.53;;;;;;;;;;5009497;28;92432;-72
2022/03/21 03:07:58;;;;;;;67.15;45.72;;;;;;;;;;5011403;28;94021;-72
2022/03/21 03:10:25;;;;;;;63.15;46.70;;;;;;;;;;5011773;28;93393;-72
2022/03/21 03:12:51;;;;;;;65.50;45.80;;;;;;;;;;5010732;28;92910;-72
2022/03/21 03:15:18;;;;;;;65.85;46.30;;;;;;;;;;5011447;28;93925;-72
2022/03/21 03:17:44;;;;;;;72.40;48.00;;;;;;;;;;5014574;28;92384;-72
2022/03/21 03:20:10;;;;;;;65.38;44.88;;;;;;;;;;5011182;28;94105;-72
2022/03/21 03:22:37;;;;;;;60.63;44.33;;;;;;;;;;5011297;28;95603;-72
2022/03/21 03:25:04;;;;;;;68.85;45.30;;;;;;;;;;5008667;27;95725;-72
2022/03/21 03:27:31;;;;;;;68.95;45.88;;;;;;;;;;5010844;28;96424;-72
2022/03/21 03:29:58;;;;;;;64.53;45.42;;;;;;;;;;5011831;28;94225;-71
2022/03/21 03:32:24;;;;;;;69.07;46.10;;;;;;;;;;5010783;28;93454;-72
2022/03/21 03:34:51;;;;;;;67.05;45.90;;;;;;;;;;5011069;28;94091;-72
2022/03/21 03:37:17;;;;;;;65.03;44.92;;;;;;;;;;5010673;28;96049;-72
2022/03/21 03:39:43;;;;;;;62.90;45.17;;;;;;;;;;5014365;28;93006;-72
2022/03/21 03:42:10;;;;;;;71.00;46.72;;;;;;;;;;5010892;28;93411;-72
2022/03/21 03:44:37;;;;;;;63.78;44.53;;;;;;;;;;5011007;28;92480;-72
2022/03/21 03:47:03;;;;;;;63.42;46.15;;;;;;;;;;5011184;28;93380;-72
2022/03/21 03:49:30;;;;;;;72.72;46.00;;;;;;;;;;5008692;28;96516;-72
2022/03/21 03:51:56;;;;;;;60.88;43.33;;;;;;;;;;5011921;28;92458;-72
2022/03/21 03:54:23;;;;;;;64.47;44.75;;;;;;;;;;5008571;28;93710;-72
2022/03/21 03:56:49;;;;;;;66.93;46.20;;;;;;;;;;5011819;28;94140;-72
2022/03/21 03:59:15;;;;;;;63.97;46.25;;;;;;;;;;5013372;28;92510;-72
2022/03/21 04:01:41;;;;;;;65.35;47.33;;;;;;;;;;5010693;28;94601;-72
2022/03/21 04:04:08;;;;;;;70.55;48.10;;;;;;;;;;5008943;28;92520;-72
2022/03/21 04:06:34;;;;;;;64.03;46.28;;;;;;;;;;5009162;28;94267;-72
2022/03/21 04:09:01;;;;;;;66.10;47.58;;;;;;;;;;5004611;28;94541;-72
2022/03/21 04:11:27;;;;;;;66.63;47.30;;;;;;;;;;5007276;28;95073;-72
2022/03/21 04:13:54;;;;;;;67.93;45.72;;;;;;;;;;5006050;28;95082;-71
2022/03/21 04:16:20;;;;;;;67.57;47.40;;;;;;;;;;5008742;28;94203;-72
2022/03/21 04:18:48;;;;;;;65.45;46.97;;;;;;;;;;5013930;28;92606;-72
2022/03/21 04:21:24;;;;;;;69.03;47.92;;;;;;;;;;5016861;28;93963;-72
2022/03/21 04:23:51;;;;;;;66.57;47.08;;;;;;;;;;5012836;28;92518;-72
2022/03/21 04:26:18;;;;;;;66.55;48.58;;;;;;;;;;5013691;28;92943;-72
2022/03/21 04:28:44;;;;;;;70.63;46.85;;;;;;;;;;5012742;28;93722;-72
2022/03/21 04:31:10;;;;;;;81.38;46.35;;;;;;;;;;5014682;28;91730;-72
2022/03/21 04:33:37;;;;;;;73.50;46.25;;;;;;;;;;5013764;28;93288;-72
2022/03/21 04:36:03;;;;;;;70.82;46.85;;;;;;;;;;5012860;28;93724;-72
2022/03/21 04:38:30;;;;;;;67.90;46.88;;;;;;;;;;5010206;28;94959;-72
2022/03/21 04:40:56;;;;;;;73.30;46.67;;;;;;;;;;5014139;28;96480;-72
2022/03/21 04:43:23;;;;;;;69.60;46.45;;;;;;;;;;5015510;28;93551;-72
2022/03/21 04:45:49;;;;;;;74.32;49.10;;;;;;;;;;5014234;28;92777;-72
2022/03/21 04:48:16;;;;;;;66.88;47.42;;;;;;;;;;5012816;28;94192;-72
2022/03/21 04:50:43;;;;;;;70.45;48.78;;;;;;;;;;5009597;28;93217;-72
2022/03/21 04:53:10;;;;;;;70.28;47.33;;;;;;;;;;5012299;27;94153;-72
2022/03/21 04:55:40;;;;;;;69.82;47.35;;;;;;;;;;5013417;28;93316;-72
2022/03/21 04:58:07;;;;;;;75.00;46.67;;;;;;;;;;5013549;28;92871;-72
2022/03/21 05:00:34;;;;;;;75.05;46.28;;;;;;;;;;5013175;28;94215;-72
2022/03/21 05:03:01;;;;;;;62.85;47.00;;;;;;;;;;5011452;28;95879;-72
2022/03/21 05:05:28;;;;;;;68.40;47.92;;;;;;;;;;5014788;28;92453;-72
2022/03/21 05:07:55;;;;;;;72.95;49.30;;;;;;;;;;5013770;28;94123;-72
2022/03/21 05:10:22;;;;;;;67.75;49.05;;;;;;;;;;5012941;28;92444;-72
2022/03/21 05:12:50;;;;;;;68.88;47.13;;;;;;;;;;5012903;28;93215;-72
2022/03/21 05:15:17;;;;;;;68.57;47.85;;;;;;;;;;5012742;28;93478;-72
2022/03/21 05:17:44;;;;;;;70.32;47.80;;;;;;;;;;5013421;28;94187;-72
2022/03/21 05:20:15;;;;;;;73.78;47.88;;;;;;;;;;5013063;28;94353;-72
2022/03/21 05:30:56;;;;;;;69.38;47.05;;;;;;;;;;5013662;28;94202;-72
2022/03/21 05:31:02;;;;;;;68.93;46.22;;;;;;;;;;5013616;27;92461;-72
2022/03/21 05:36:15;;;;;;;72.22;48.22;;;;;;;;;;5013509;27;93403;-72
2022/03/21 05:38:41;;;;;;;69.63;47.92;;;;;;;;;;5011674;28;92474;-72
2022/03/21 05:41:07;;;;;;;68.65;47.05;;;;;;;;;;5014525;28;94200;-72
2022/03/21 05:43:34;;;;;;;70.78;47.35;;;;;;;;;;5011786;28;94522;-72
2022/03/21 05:46:03;;;;;;;77.32;49.80;;;;;;;;;;5014152;28;91712;-71
2022/03/21 05:51:15;;;;;;;78.40;48.00;;;;;;;;;;5015175;28;94253;-71
2022/03/21 05:53:42;;;;;;;75.05;49.20;;;;;;;;;;5008315;28;95281;-71
2022/03/21 05:56:11;;;;;;;73.70;49.05;;;;;;;;;;5011439;27;93273;-69
2022/03/21 05:58:37;;;;;;;71.85;48.63;;;;;;;;;;5010438;28;92674;-74
2022/03/21 06:01:04;;;;;;;76.13;48.35;;;;;;;;;;5012585;28;94260;-71
2022/03/21 06:03:30;;;;;;;75.47;49.85;;;;;;;;;;5011626;28;94310;-71
2022/03/21 06:05:59;;;;;;;73.53;50.53;;;;;;;;;;5012897;28;92441;-71
2022/03/21 06:08:26;;;;;;;76.20;47.05;;;;;;;;;;5011381;28;94190;-71
2022/03/21 06:11:05;;;;;;;71.20;48.55;;;;;;;;;;5016469;28;92816;-71
2022/03/21 06:13:32;;;;;;;71.57;46.97;;;;;;;;;;5011074;28;93509;-71
2022/03/21 06:16:03;;;;;;;73.03;48.35;;;;;;;;;;5012383;28;93404;-71
2022/03/21 06:18:30;;;;;;;70.00;46.33;;;;;;;;;;5010173;28;94891;-71
2022/03/21 06:20:57;;;;;;;72.05;47.33;;;;;;;;;;5011999;28;95591;-71
2022/03/21 06:23:24;;;;;;;78.07;48.92;;;;;;;;;;5009775;28;93472;-72
2022/03/21 06:25:53;;;;;;;73.60;50.58;;;;;;;;;;5005230;28;92598;-71
2022/03/21 06:28:21;;;;;;;67.18;48.10;;;;;;;;;;5011664;28;94094;-71
2022/03/21 06:30:47;;;;;;;72.50;47.45;;;;;;;;;;5007937;28;93187;-71
2022/03/21 06:33:13;;;;;;;75.03;48.10;;;;;;;;;;5012073;28;92578;-71
2022/03/21 06:35:40;;;;;;;72.30;48.08;;;;;;;;;;5008385;28;92696;-70
2022/03/21 06:38:06;;;;;;;73.20;47.67;;;;;;;;;;5012639;28;92634;-70
2022/03/21 06:40:33;;;;;;;66.82;47.13;;;;;;;;;;5011250;28;93839;-71
2022/03/21 06:43:00;;;;;;;75.68;46.83;;;;;;;;;;5010954;28;95642;-71
2022/03/21 06:45:26;;;;;;;70.05;46.75;;;;;;;;;;5013078;28;93983;-71
2022/03/21 06:47:52;;;;;;;77.97;47.63;;;;;;;;;;5008342;28;93149;-71
2022/03/21 06:50:19;;;;;;;72.05;47.95;;;;;;;;;;5011040;28;94228;-71
2022/03/21 06:52:45;;;;;;;76.88;48.10;;;;;;;;;;5016090;27;93165;-70
2022/03/21 06:55:12;;;;;;;68.10;46.60;;;;;;;;;;5035123;27;93432;-71
2022/03/21 06:57:39;;;;;;;72.68;47.90;;;;;;;;;;5020374;27;93363;-70
2022/03/21 07:00:06;;;;;;;64.35;44.22;;;;;;;;;;5012485;28;92041;-71
2022/03/21 07:02:32;;;;;;;73.65;46.22;;;;;;;;;;5009487;28;93949;-71
2022/03/21 07:04:59;;;;;;;74.63;50.20;;;;;;;;;;5009048;28;92916;-71
2022/03/21 07:07:26;;;;;;;64.35;47.30;;;;;;;;;;5003838;28;98496;-71
2022/03/21 07:09:53;;;;;;;66.35;46.90;;;;;;;;;;5003516;28;94693;-71
2022/03/21 07:12:19;;;;;;;74.47;47.80;;;;;;;;;;5010685;28;92874;-70
2022/03/21 07:14:46;;;;;;;64.50;46.85;;;;;;;;;;5011298;28;93980;-71
2022/03/21 07:17:12;;;;;;;69.28;46.75;;;;;;;;;;5011388;28;94366;-71
2022/03/21 07:19:38;;;;;;;68.20;47.50;;;;;;;;;;5010130;28;94247;-71
2022/03/21 07:22:06;;;;;;;66.75;47.25;;;;;;;;;;5010802;28;94192;-69
2022/03/21 07:24:33;;;;;;;69.32;46.22;;;;;;;;;;5023676;27;91958;-71
2022/03/21 07:27:00;;;;;;;52.15;34.53;;;;;;;;;;5011056;28;93814;-71
2022/03/21 07:29:26;;;;;;;69.82;44.38;;;;;;;;;;5011265;28;93552;-71
2022/03/21 07:31:53;;;;;;;70.40;46.63;;;;;;;;;;5009115;28;95762;-71
2022/03/21 07:34:19;;;;;;;71.53;45.13;;;;;;;;;;4992771;28;96430;-72
2022/03/21 07:36:46;;;;;;;65.28;48.15;;;;;;;;;;4991951;28;93428;-72
2022/03/21 07:39:14;;;;;;;62.67;45.03;;;;;;;;;;4993871;28;92940;-72
2022/03/21 07:41:40;;;;;;;59.63;44.72;;;;;;;;;;4991801;28;94780;-72
2022/03/21 07:44:07;;;;;;;65.70;43.28;;;;;;;;;;5004125;28;92961;-72
2022/03/21 07:49:18;;;;;;;58.60;39.42;;;;;;;;;;4999752;28;92649;-72
2022/03/21 07:51:44;;;;;;;53.97;39.38;;;;;;;;;;5005206;28;92545;-72
2022/03/21 07:54:13;;;;;;;57.15;40.53;;;;;;;;;;5014097;28;93148;-72
2022/03/21 07:56:40;;;;;;;62.13;40.67;;;;;;;;;;5013405;28;96437;-72
2022/03/21 07:59:07;;;;;;;54.42;40.08;;;;;;;;;;5015087;28;92854;-72
2022/03/21 08:01:34;;;;;;;54.40;38.33;;;;;;;;;;5017881;28;93217;-71
2022/03/21 08:04:03;;;;;;;51.55;38.05;;;;;;;;;;5015057;28;92501;-72
2022/03/21 08:06:29;;;;;;;50.70;37.10;;;;;;;;;;5013787;28;94023;-72
2022/03/21 08:08:56;;;;;;;52.25;36.97;;;;;;;;;;5015398;28;94110;-72
2022/03/21 08:11:22;;;;;;;55.67;38.33;;;;;;;;;;5014654;28;92446;-72
2022/03/21 08:13:49;;;;;;;52.35;37.53;;;;;;;;;;5014997;28;93048;-72
2022/03/21 08:16:19;;;;;;;50.42;35.42;;;;;;;;;;5014493;28;93304;-72
2022/03/21 08:18:49;;;;;;;53.03;36.70;;;;;;;;;;5014052;28;92568;-72
2022/03/21 08:21:16;;;;;;;52.05;34.53;;;;;;;;;;5008677;28;94921;-72
2022/03/21 08:23:43;;;;;;;54.22;36.95;;;;;;;;;;5017085;28;92515;-72
2022/03/21 08:26:10;;;;;;;54.30;36.05;;;;;;;;;;5014385;28;94318;-72
2022/03/21 08:28:37;;;;;;;50.22;35.67;;;;;;;;;;5013701;28;94095;-72
2022/03/21 08:31:03;;;;;;;52.53;34.58;;;;;;;;;;5014943;27;92495;-72
2022/03/21 08:33:30;;;;;;;42.20;31.95;;;;;;;;;;5014877;27;93289;-72
2022/03/21 08:35:56;;;;;;;44.72;33.70;;;;;;;;;;5013961;28;93335;-72
2022/03/21 08:38:28;;;;;;;40.88;29.90;;;;;;;;;;5014742;28;91817;-73
2022/03/21 08:40:56;;;;;;;30.90;25.25;;;;;;;;;;4997041;28;93665;-72
2022/03/21 08:43:22;;;;;;;36.28;24.25;;;;;;;;;;5002223;28;94224;-72
2022/03/21 08:45:49;;;;;;;42.45;26.10;;;;;;;;;;5012853;28;95215;-72
2022/03/21 08:48:15;;;;;;;45.45;27.75;;;;;;;;;;5013855;28;94235;-72
2022/03/21 08:50:42;;;;;;;39.95;25.48;;;;;;;;;;5011074;28;92870;-72
2022/03/21 08:53:08;;;;;;;35.53;23.40;;;;;;;;;;4994078;28;94052;-72
2022/03/21 08:55:35;;;;;;;25.77;19.83;;;;;;;;;;5009106;28;94207;-72
2022/03/21 08:58:01;;;;;;;31.35;22.60;;;;;;;;;;5013809;28;92451;-72
2022/03/21 09:00:27;;;;;;;37.47;23.25;;;;;;;;;;5013555;28;94144;-72
2022/03/21 09:02:55;;;;;;;31.20;21.48;;;;;;;;;;4992635;28;93581;-72
2022/03/21 09:05:22;;;;;;;30.80;23.00;;;;;;;;;;5010483;28;92608;-72
2022/03/21 09:07:48;;;;;;;32.35;22.70;;;;;;;;;;5013584;28;94206;-72
2022/03/21 09:10:17;;;;;;;29.27;22.25;;;;;;;;;;5010384;28;94943;-72
2022/03/21 09:12:43;;;;;;;29.23;21.45;;;;;;;;;;5020140;28;96841;-72
2022/03/21 09:15:10;;;;;;;30.92;22.08;;;;;;;;;;5014256;27;94161;-72
2022/03/21 09:17:37;;;;;;;27.73;22.27;;;;;;;;;;5013149;28;92646;-72
2022/03/21 09:20:04;;;;;;;31.30;21.33;;;;;;;;;;5013693;28;94184;-72
2022/03/21 09:22:31;;;;;;;28.55;19.35;;;;;;;;;;5013318;28;94346;-72
2022/03/21 09:24:58;;;;;;;34.20;20.98;;;;;;;;;;5013399;28;92468;-72
2022/03/21 09:27:26;;;;;;;26.60;20.15;;;;;;;;;;5016639;28;94258;-72
2022/03/21 09:29:52;;;;;;;38.03;21.45;;;;;;;;;;5013770;28;92441;-72
2022/03/21 09:32:19;;;;;;;30.45;22.38;;;;;;;;;;5013035;28;93347;-72
2022/03/21 09:34:45;;;;;;;33.22;20.95;;;;;;;;;;5011458;28;96607;-72
2022/03/21 09:37:12;;;;;;;32.38;20.38;;;;;;;;;;5013224;28;92529;-73
2022/03/21 09:39:38;;;;;;;32.03;22.35;;;;;;;;;;5012639;28;94044;-72
2022/03/21 09:42:05;;;;;;;32.00;22.63;;;;;;;;;;5010933;28;94187;-72
2022/03/21 09:44:31;;;;;;;28.48;21.25;;;;;;;;;;5005881;28;92614;-72
2022/03/21 09:46:59;;;;;;;27.33;20.55;;;;;;;;;;4993151;28;92427;-72
2022/03/21 09:49:28;;;;;;;33.83;21.85;;;;;;;;;;5014961;28;94368;-73
2022/03/21 09:51:54;;;;;;;25.60;20.02;;;;;;;;;;5012825;28;94426;-72
2022/03/21 09:54:21;;;;;;;25.77;20.23;;;;;;;;;;5012469;28;94258;-72
2022/03/21 09:56:47;;;;;;;29.52;19.15;;;;;;;;;;5013082;28;92490;-73
2022/03/21 09:59:13;;;;;;;22.48;18.50;;;;;;;;;;5010794;28;95437;-72
2022/03/21 10:01:41;;;;;;;33.63;19.33;;;;;;;;;;5012722;28;95021;-73
2022/03/21 10:04:09;;;;;;;29.63;18.48;;;;;;;;;;5012778;28;92581;-74
2022/03/21 10:06:40;;;;;;;24.23;17.80;;;;;;;;;;5012090;28;94727;-73
2022/03/21 10:09:15;;;;;;;26.43;18.93;;;;;;;;;;5012868;28;94188;-72
2022/03/21 10:11:49;;;;;;;35.63;18.65;;;;;;;;;;5015327;28;92404;-72
2022/03/21 10:14:29;;;;;;;26.58;17.98;;;;;;;;;;5011418;28;94469;-72
2022/03/21 10:17:01;;;;;;;21.60;16.90;;;;;;;;;;5013662;28;91930;-73
2022/03/21 10:19:39;;;;;;;22.30;17.73;;;;;;;;;;5012498;28;93299;-73
2022/03/21 10:22:07;;;;;;;21.85;17.48;;;;;;;;;;5011551;28;93183;-73
2022/03/21 10:24:35;;;;;;;23.52;17.58;;;;;;;;;;5011201;28;95284;-73
2022/03/21 10:27:02;;;;;;;23.67;16.35;;;;;;;;;;5014938;28;94285;-73
2022/03/21 10:29:28;;;;;;;20.52;16.30;;;;;;;;;;5016553;28;94308;-73
2022/03/21 10:31:55;;;;;;;20.95;15.63;;;;;;;;;;5020229;28;92464;-73
2022/03/21 10:34:23;;;;;;;23.60;16.60;;;;;;;;;;5015730;28;93518;-73
2022/03/21 10:36:56;;;;;;;23.52;16.63;;;;;;;;;;5012691;28;92495;-74
2022/03/21 10:39:23;;;;;;;21.42;15.63;;;;;;;;;;5012130;28;94030;-72
2022/03/21 10:41:54;;;;;;;22.52;16.77;;;;;;;;;;5011879;28;92632;-72
2022/03/21 10:44:20;;;;;;;23.20;17.35;;;;;;;;;;5011845;28;92559;-71
2022/03/21 10:46:51;;;;;;;21.15;17.48;;;;;;;;;;5012379;28;92987;-72
2022/03/21 10:49:25;;;;;;;20.92;15.80;;;;;;;;;;5009919;28;95601;-72
2022/03/21 10:51:54;;;;;;;26.85;18.10;;;;;;;;;;5012184;28;92691;-72
2022/03/21 10:54:35;;;;;;;27.08;16.98;;;;;;;;;;5015227;28;94485;-73
2022/03/21 10:57:02;;;;;;;28.73;17.98;;;;;;;;;;5011636;28;92603;-73
2022/03/21 10:59:28;;;;;;;25.98;16.80;;;;;;;;;;5012323;28;93358;-72
2022/03/21 11:02:13;;;;;;;20.83;16.80;;;;;;;;;;5012063;28;94513;-73
2022/03/21 11:04:42;;;;;;;19.88;15.55;;;;;;;;;;5012682;28;92973;-73
2022/03/21 11:07:11;;;;;;;24.70;16.85;;;;;;;;;;5012495;28;93333;-72
2022/03/21 11:09:42;;;;;;;22.73;17.05;;;;;;;;;;5010454;28;94122;-72
2022/03/21 11:12:08;;;;;;;20.55;16.15;;;;;;;;;;5011335;28;92522;-72
2022/03/21 11:14:39;;;;;;;24.98;17.60;;;;;;;;;;5010389;28;94897;-72
2022/03/21 11:17:06;;;;;;;22.10;15.55;;;;;;;;;;5014609;28;94511;-73
2022/03/21 11:19:33;;;;;;;26.38;16.75;;;;;;;;;;5011619;28;93963;-72
2022/03/21 11:22:02;;;;;;;21.92;16.70;;;;;;;;;;5012318;28;93402;-72
2022/03/21 11:24:29;;;;;;;26.38;16.60;;;;;;;;;;5011313;28;93065;-73
2022/03/21 11:27:01;;;;;;;27.70;17.38;;;;;;;;;;5011396;28;95489;-73
2022/03/21 11:29:41;;;;;;;23.55;17.27;;;;;;;;;;5011370;28;94177;-73
2022/03/21 11:32:07;;;;;;;26.00;16.80;;;;;;;;;;5011664;28;91788;-72
2022/03/21 11:34:44;;;;;;;26.92;17.33;;;;;;;;;;5011560;28;92922;-72
2022/03/21 11:37:27;;;;;;;20.95;15.50;;;;;;;;;;5011398;28;94366;-72
2022/03/21 11:40:11;;;;;;;17.55;13.65;;;;;;;;;;5013301;28;94883;-74
2022/03/21 11:42:38;;;;;;;23.13;13.73;;;;;;;;;;5011425;28;94244;-72
2022/03/21 11:45:21;;;;;;;18.70;14.50;;;;;;;;;;5010952;28;92479;-72
2022/03/21 11:47:47;;;;;;;21.83;14.57;;;;;;;;;;5011735;28;94266;-72
2022/03/21 11:50:27;;;;;;;28.25;14.82;;;;;;;;;;5010883;28;94252;-72
2022/03/21 11:53:13;;;;;;;21.95;15.18;;;;;;;;;;5011004;28;92750;-72
2022/03/21 11:55:41;;;;;;;25.42;14.18;;;;;;;;;;5011592;28;93980;-73
2022/03/21 11:58:27;;;;;;;24.90;15.77;;;;;;;;;;5009861;28;94238;-72
2022/03/21 12:01:01;;;;;;;23.75;15.60;;;;;;;;;;5011596;28;92506;-73
2022/03/21 12:03:28;;;;;;;16.70;13.77;;;;;;;;;;5014262;28;93840;-73
2022/03/21 12:05:54;;;;;;;21.05;14.68;;;;;;;;;;5008660;28;95031;-74
2022/03/21 12:08:34;;;;;;;23.00;15.15;;;;;;;;;;5010791;28;96467;-73
2022/03/21 12:11:01;;;;;;;23.52;14.50;;;;;;;;;;5011558;28;93964;-73
2022/03/21 12:13:37;;;;;;;25.77;14.93;;;;;;;;;;5009967;28;92565;-73
2022/03/21 12:16:16;;;;;;;17.58;14.07;;;;;;;;;;5011670;28;93812;-73
2022/03/21 12:18:59;;;;;;;21.92;14.93;;;;;;;;;;5011317;28;93563;-73
2022/03/21 12:21:26;;;;;;;24.05;14.13;;;;;;;;;;5010376;28;92413;-73
2022/03/21 12:24:11;;;;;;;25.95;14.85;;;;;;;;;;5014604;28;92969;-73
2022/03/21 12:26:37;;;;;;;26.38;14.77;;;;;;;;;;5010440;28;92475;-73
2022/03/21 12:29:35;;;;;;;18.42;14.27;;;;;;;;;;5011209;28;95223;-73
2022/03/21 12:32:20;;;;;;;20.38;14.60;;;;;;;;;;5008993;28;96013;-73
2022/03/21 12:34:46;;;;;;;20.08;14.82;;;;;;;;;;5010535;28;92602;-73
2022/03/21 12:37:40;;;;;;;27.33;16.55;;;;;;;;;;5011163;28;93214;-73
2022/03/21 12:40:10;;;;;;;16.38;13.85;;;;;;;;;;5014137;28;94872;-73
2022/03/21 12:42:44;;;;;;;22.40;14.93;;;;;;;;;;5013257;28;92588;-73
2022/03/21 12:45:16;;;;;;;21.17;15.02;;;;;;;;;;5008996;28;93552;-73
2022/03/21 12:47:42;;;;;;;31.43;14.67;;;;;;;;;;4996584;28;93200;-73
2022/03/21 12:50:09;;;;;;;18.38;12.68;;;;;;;;;;5011835;28;93207;-73
2022/03/21 12:52:36;;;;;;;18.65;13.00;;;;;;;;;;5015878;28;94036;-73
2022/03/21 12:55:03;;;;;;;28.10;14.07;;;;;;;;;;5016487;28;92474;-73
2022/03/21 12:57:32;;;;;;;19.15;14.43;;;;;;;;;;5013251;28;94876;-73
2022/03/21 13:00:14;;;;;;;21.95;13.27;;;;;;;;;;5013961;28;93448;-73
2022/03/21 13:02:41;;;;;;;18.20;14.00;;;;;;;;;;5013453;28;92737;-73
2022/03/21 13:10:40;;;;;;;19.35;13.70;;;;;;;;;;5015482;28;92637;-73
2022/03/21 13:13:07;;;;;;;20.05;13.15;;;;;;;;;;5013446;28;94101;-72
2022/03/21 13:15:35;;;;;;;24.63;13.20;;;;;;;;;;5014120;28;91773;-73
2022/03/21 13:18:02;;;;;;;20.65;14.30;;;;;;;;;;5013534;28;92506;-73
2022/03/21 13:20:38;;;;;;;16.80;12.70;;;;;;;;;;5014270;28;93946;-73
2022/03/21 13:23:05;;;;;;;17.52;13.07;;;;;;;;;;5011261;28;95148;-73
2022/03/21 13:25:35;;;;;;;21.35;14.55;;;;;;;;;;5014055;28;95431;-71
2022/03/21 13:28:21;;;;;;;23.67;13.18;;;;;;;;;;5013657;28;93237;-73
2022/03/21 13:30:52;;;;;;;19.02;13.70;;;;;;;;;;5013111;28;92431;-73
2022/03/21 13:33:22;;;;;;;26.60;13.77;;;;;;;;;;5016538;28;93960;-73
2022/03/21 13:35:52;;;;;;;25.05;14.07;;;;;;;;;;5013757;28;92438;-73
2022/03/21 13:38:23;;;;;;;23.85;14.73;;;;;;;;;;5013077;28;94102;-73
2022/03/21 13:40:50;;;;;;;19.58;12.77;;;;;;;;;;5014282;28;93075;-73
2022/03/21 13:43:23;;;;;;;21.55;13.85;;;;;;;;;;5011536;28;92575;-73
2022/03/21 13:45:49;;;;;;;21.35;13.98;;;;;;;;;;5012743;28;94038;-74
2022/03/21 13:48:30;;;;;;;20.15;13.27;;;;;;;;;;5011395;28;96335;-74
2022/03/21 13:50:58;;;;;;;17.25;13.60;;;;;;;;;;5011909;28;92454;-74
2022/03/21 13:53:26;;;;;;;23.98;13.70;;;;;;;;;;5012189;28;94023;-73
2022/03/21 13:55:52;;;;;;;17.77;13.68;;;;;;;;;;5016314;28;94159;-73
2022/03/21 13:58:26;;;;;;;16.58;13.27;;;;;;;;;;5012717;28;94645;-74
2022/03/21 14:00:54;;;;;;;19.70;13.40;;;;;;;;;;5012806;28;94065;-73
2022/03/21 14:03:34;;;;;;;28.88;15.85;;;;;;;;;;5013001;28;92488;-74
2022/03/21 14:06:01;;;;;;;27.38;13.10;;;;;;;;;;5012477;28;93109;-73
2022/03/21 14:08:28;;;;;;;19.80;14.52;;;;;;;;;;5012765;28;93499;-74
2022/03/21 14:11:01;;;;;;;23.02;13.73;;;;;;;;;;5012899;28;92961;-74
2022/03/21 14:13:28;;;;;;;23.60;14.00;;;;;;;;;;5010397;28;95282;-74
2022/03/21 14:15:57;;;;;;;23.13;14.45;;;;;;;;;;5012545;28;94356;-73
2022/03/21 14:18:23;;;;;;;23.48;12.73;;;;;;;;;;5015800;28;92466;-74
2022/03/21 14:20:50;;;;;;;25.13;13.77;;;;;;;;;;5012258;28;93528;-74
2022/03/21 14:23:16;;;;;;;34.53;14.55;;;;;;;;;;5012425;28;92459;-74
2022/03/21 14:28:28;;;;;;;18.42;14.30;;;;;;;;;;4991872;28;94651;-74
2022/03/21 14:30:56;;;;;;;22.48;14.25;;;;;;;;;;5007629;28;93306;-74
2022/03/21 14:33:23;;;;;;;20.58;15.05;;;;;;;;;;5003244;28;92485;-74
2022/03/21 14:35:49;;;;;;;20.27;14.07;;;;;;;;;;5004570;28;93052;-74
2022/03/21 14:38:16;;;;;;;20.48;14.43;;;;;;;;;;5013425;28;94950;-74
2022/03/21 14:40:42;;;;;;;28.25;14.90;;;;;;;;;;5003879;28;93417;-74
2022/03/21 14:43:09;;;;;;;24.45;14.93;;;;;;;;;;5001763;28;92471;-74
2022/03/21 14:45:35;;;;;;;21.58;13.70;;;;;;;;;;5010049;28;93382;-74
2022/03/21 14:48:03;;;;;;;20.65;15.05;;;;;;;;;;5010882;28;94074;-74